createdAt,value
2018-11-06T00:01:13.893Z,100400.13
2018-11-06T00:03:46.872Z,100398.68
2018-11-06T00:06:15.008Z,100404.42
2018-11-06T00:08:43.163Z,100387.90
2018-11-06T00:11:12.008Z,100380.60
2018-11-06T00:13:40.944Z,100383.65
2018-11-06T00:16:10.037Z,100382.81
2018-11-06T00:18:38.163Z,100386.30
2018-11-06T00:21:06.344Z,100382.31
2018-11-06T00:23:34.543Z,100378.97
2018-11-06T00:26:02.654Z,100371.49
2018-11-06T00:28:30.780Z,100382.65
2018-11-06T00:30:58.879Z,100381.66
2018-11-06T00:33:27.006Z,100372.61
2018-11-06T00:35:55.071Z,100371.16
2018-11-06T00:38:23.195Z,100368.63
2018-11-06T00:40:51.304Z,100363.94
2018-11-06T00:43:19.368Z,100365.36
2018-11-06T00:45:47.521Z,100370.16
2018-11-06T00:48:15.702Z,100368.48
2018-11-06T00:50:43.812Z,100367.78
2018-11-06T00:53:11.891Z,100365.48
2018-11-06T00:55:39.964Z,100374.83
2018-11-06T00:58:08.072Z,100385.49
2018-11-06T01:00:36.149Z,100376.67
2018-11-06T01:03:04.244Z,100375.21
2018-11-06T01:05:32.339Z,100380.20
2018-11-06T01:08:00.448Z,100388.18
2018-11-06T01:10:28.551Z,100385.53
2018-11-06T01:12:56.651Z,100390.77
2018-11-06T01:15:24.755Z,100387.71
2018-11-06T01:17:52.876Z,100384.16
2018-11-06T01:20:20.988Z,100372.35
2018-11-06T01:22:49.072Z,100370.74
2018-11-06T01:25:17.268Z,100367.60
2018-11-06T01:27:45.365Z,100367.30
2018-11-06T01:30:15.805Z,100366.83
2018-11-06T01:32:44.595Z,100359.86
2018-11-06T01:35:13.522Z,100355.37
2018-11-06T01:37:42.501Z,100356.29
2018-11-06T01:40:12.628Z,100349.09
2018-11-06T01:42:41.092Z,100340.70
2018-11-06T01:45:11.164Z,100341.58
2018-11-06T01:47:39.543Z,100340.23
2018-11-06T01:50:08.829Z,100349.97
2018-11-06T01:52:36.990Z,100348.36
2018-11-06T01:55:05.421Z,100351.50
2018-11-06T01:57:33.541Z,100345.64
2018-11-06T02:00:01.705Z,100350.66
2018-11-06T02:02:29.857Z,100349.86
2018-11-06T02:04:57.989Z,100342.16
2018-11-06T02:07:26.117Z,100333.39
2018-11-06T02:09:54.249Z,100340.89
2018-11-06T02:12:22.387Z,100349.55
2018-11-06T02:14:50.551Z,100345.87
2018-11-06T02:17:18.709Z,100348.86
2018-11-06T02:19:46.874Z,100343.95
2018-11-06T02:22:15.013Z,100348.17
2018-11-06T02:24:43.193Z,100339.52
2018-11-06T02:27:11.325Z,100339.52
2018-11-06T02:29:39.450Z,100338.97
2018-11-06T02:32:07.587Z,100337.59
2018-11-06T02:34:35.718Z,100340.67
2018-11-06T02:37:03.863Z,100351.86
2018-11-06T02:39:31.995Z,100338.15
2018-11-06T02:42:00.100Z,100351.61
2018-11-06T02:44:28.209Z,100352.70
2018-11-06T02:46:56.332Z,100360.13
2018-11-06T02:49:24.478Z,100356.90
2018-11-06T02:51:52.632Z,100360.34
2018-11-06T02:54:20.795Z,100353.98
2018-11-06T02:56:48.946Z,100353.00
2018-11-06T02:59:17.107Z,100352.97
2018-11-06T03:01:45.229Z,100342.11
2018-11-06T03:04:13.428Z,100345.63
2018-11-06T03:06:41.577Z,100333.85
2018-11-06T03:09:09.730Z,100344.33
2018-11-06T03:11:38.137Z,100352.59
2018-11-06T03:14:06.267Z,100353.80
2018-11-06T03:16:34.369Z,100355.94
2018-11-06T03:19:02.498Z,100355.73
2018-11-06T03:21:30.614Z,100362.97
2018-11-06T03:23:58.768Z,100356.72
2018-11-06T03:26:27.612Z,100358.61
2018-11-06T03:28:55.784Z,100363.11
2018-11-06T03:31:23.932Z,100358.72
2018-11-06T03:33:52.056Z,100358.57
2018-11-06T03:36:20.197Z,100362.66
2018-11-06T03:38:48.379Z,100364.12
2018-11-06T03:41:16.505Z,100363.46
2018-11-06T03:43:45.052Z,100361.56
2018-11-06T03:46:13.179Z,100366.85
2018-11-06T03:48:41.289Z,100370.69
2018-11-06T03:51:09.439Z,100360.57
2018-11-06T03:53:37.568Z,100365.78
2018-11-06T03:56:06.312Z,100375.52
2018-11-06T03:58:34.477Z,100376.20
2018-11-06T04:01:02.619Z,100373.22
2018-11-06T04:03:30.769Z,100378.56
2018-11-06T04:05:58.933Z,100382.80
2018-11-06T04:08:27.104Z,100382.86
2018-11-06T04:10:55.257Z,100379.58
2018-11-06T04:13:23.394Z,100383.85
2018-11-06T04:15:51.573Z,100382.80
2018-11-06T04:18:19.709Z,100378.42
2018-11-06T04:20:47.867Z,100384.45
2018-11-06T04:23:16.090Z,100386.53
2018-11-06T04:25:44.254Z,100380.94
2018-11-06T04:28:12.376Z,100387.06
2018-11-06T04:30:40.542Z,100383.70
2018-11-06T04:33:08.716Z,100382.31
2018-11-06T04:35:36.861Z,100375.44
2018-11-06T04:38:05.102Z,100386.22
2018-11-06T04:40:33.237Z,100392.66
2018-11-06T04:43:01.388Z,100385.84
2018-11-06T04:45:29.504Z,100392.98
2018-11-06T04:47:57.657Z,100387.61
2018-11-06T04:50:26.014Z,100390.45
2018-11-06T04:52:54.180Z,100388.45
2018-11-06T04:55:22.316Z,100403.09
2018-11-06T04:57:50.517Z,100401.30
2018-11-06T05:00:18.713Z,100397.16
2018-11-06T05:02:46.823Z,100398.70
2018-11-06T05:05:14.981Z,100394.43
2018-11-06T05:07:43.138Z,100385.30
2018-11-06T05:10:14.347Z,100380.17
2018-11-06T05:12:42.497Z,100378.80
2018-11-06T05:15:13.781Z,100376.58
2018-11-06T05:17:42.031Z,100379.02
2018-11-06T05:20:13.158Z,100375.13
2018-11-06T05:22:41.374Z,100386.16
2018-11-06T05:25:09.846Z,100390.75
2018-11-06T05:27:38.377Z,100399.09
2018-11-06T05:30:06.943Z,100400.27
2018-11-06T05:32:35.123Z,100414.38
2018-11-06T05:35:03.300Z,100421.83
2018-11-06T05:37:31.445Z,100420.59
2018-11-06T05:40:11.032Z,100425.87
2018-11-06T05:42:39.161Z,100435.33
2018-11-06T05:45:07.314Z,100431.39
2018-11-06T05:47:35.466Z,100439.01
2018-11-06T05:50:03.695Z,100454.16
2018-11-06T05:52:31.926Z,100450.89
2018-11-06T05:55:00.079Z,100455.27
2018-11-06T05:57:28.241Z,100463.32
2018-11-06T05:59:56.403Z,100461.22
2018-11-06T06:02:24.560Z,100471.00
2018-11-06T06:04:52.772Z,100462.99
2018-11-06T06:07:20.937Z,100478.34
2018-11-06T06:09:49.224Z,100483.88
2018-11-06T06:12:17.338Z,100485.22
2018-11-06T06:14:45.497Z,100481.64
2018-11-06T06:17:13.745Z,100485.67
2018-11-06T06:19:41.800Z,100483.20
2018-11-06T06:22:09.970Z,100480.61
2018-11-06T06:24:38.100Z,100486.49
2018-11-06T06:27:06.227Z,100486.98
2018-11-06T06:29:34.446Z,100492.05
2018-11-06T06:32:02.604Z,100489.88
2018-11-06T06:34:30.865Z,100492.50
2018-11-06T06:36:58.979Z,100495.84
2018-11-06T06:39:27.122Z,100492.78
2018-11-06T06:41:55.278Z,100493.11
2018-11-06T06:44:23.416Z,100491.78
2018-11-06T06:46:51.587Z,100499.06
2018-11-06T06:49:19.718Z,100495.88
2018-11-06T06:51:47.832Z,100494.91
2018-11-06T06:54:16.010Z,100500.78
2018-11-06T06:56:44.106Z,100504.68
2018-11-06T06:59:12.251Z,100503.05
2018-11-06T07:01:40.373Z,100506.69
2018-11-06T07:04:08.729Z,100506.02
2018-11-06T07:06:36.890Z,100510.41
2018-11-06T07:09:07.627Z,100515.97
2018-11-06T07:11:35.963Z,100519.73
2018-11-06T07:14:04.121Z,100514.77
2018-11-06T07:16:32.240Z,100521.27
2018-11-06T07:19:00.364Z,100532.18
2018-11-06T07:21:28.527Z,100535.27
2018-11-06T07:23:56.726Z,100534.72
2018-11-06T07:26:24.844Z,100535.36
2018-11-06T07:28:53.064Z,100541.24
2018-11-06T07:31:21.186Z,100544.27
2018-11-06T07:33:49.337Z,100549.48
2018-11-06T07:36:17.469Z,100548.20
2018-11-06T07:38:45.582Z,100550.72
2018-11-06T07:41:13.788Z,100551.30
2018-11-06T07:43:41.886Z,100553.77
2018-11-06T07:46:10.020Z,100558.16
2018-11-06T07:48:38.191Z,100564.66
2018-11-06T07:51:06.370Z,100568.42
2018-11-06T07:53:34.534Z,100571.78
2018-11-06T07:56:02.698Z,100579.16
2018-11-06T07:58:30.841Z,100578.14
2018-11-06T08:00:58.981Z,100578.20
2018-11-06T08:03:27.167Z,100578.89
2018-11-06T08:05:55.310Z,100581.63
2018-11-06T08:08:23.429Z,100576.23
2018-11-06T08:10:51.585Z,100583.05
2018-11-06T08:13:19.712Z,100577.84
2018-11-06T08:15:47.910Z,100580.45
2018-11-06T08:18:16.095Z,100590.67
2018-11-06T08:20:44.315Z,100587.48
2018-11-06T08:23:12.443Z,100592.30
2018-11-06T08:25:40.604Z,100590.21
2018-11-06T08:28:08.757Z,100588.84
2018-11-06T08:30:36.933Z,100589.89
2018-11-06T08:33:05.201Z,100590.83
2018-11-06T08:35:33.365Z,100585.83
2018-11-06T08:38:01.517Z,100588.66
2018-11-06T08:40:29.637Z,100585.49
2018-11-06T08:42:57.753Z,100579.50
2018-11-06T08:45:25.925Z,100566.81
2018-11-06T08:47:54.136Z,100570.27
2018-11-06T08:50:22.248Z,100567.05
2018-11-06T08:52:50.406Z,100566.80
2018-11-06T08:55:18.547Z,100572.33
2018-11-06T08:57:46.898Z,100570.22
2018-11-06T09:00:17.330Z,100572.83
2018-11-06T09:02:46.635Z,100577.66
2018-11-06T09:05:15.743Z,100579.44
2018-11-06T09:07:44.292Z,100578.77
2018-11-06T09:10:13.532Z,100577.27
2018-11-06T09:12:41.696Z,100572.20
2018-11-06T09:15:11.744Z,100575.50
2018-11-06T09:17:40.096Z,100583.63
2018-11-06T09:20:09.610Z,100596.20
2018-11-06T09:22:37.762Z,100599.75
2018-11-06T09:25:07.188Z,100604.16
2018-11-06T09:27:35.326Z,100604.16
2018-11-06T09:30:03.469Z,100607.61
2018-11-06T09:32:31.620Z,100604.09
2018-11-06T09:34:59.803Z,100607.47
2018-11-06T09:37:27.927Z,100610.08
2018-11-06T09:39:56.048Z,100611.09
2018-11-06T09:42:24.213Z,100606.77
2018-11-06T09:44:52.390Z,100612.11
2018-11-06T09:47:20.583Z,100605.39
2018-11-06T09:49:48.688Z,100608.46
2018-11-06T09:52:16.813Z,100611.06
2018-11-06T09:54:44.950Z,100619.88
2018-11-06T09:57:13.085Z,100621.89
2018-11-06T09:59:41.279Z,100628.31
2018-11-06T10:02:09.482Z,100622.72
2018-11-06T10:04:37.650Z,100623.78
2018-11-06T10:07:06.612Z,100619.66
2018-11-06T10:09:34.546Z,100622.31
2018-11-06T10:12:02.701Z,100624.86
2018-11-06T10:14:30.845Z,100625.28
2018-11-06T10:16:58.996Z,100625.25
2018-11-06T10:19:27.136Z,100623.41
2018-11-06T10:21:55.279Z,100632.00
2018-11-06T10:24:23.419Z,100625.27
2018-11-06T10:26:51.559Z,100626.09
2018-11-06T10:29:19.719Z,100615.42
2018-11-06T10:31:47.905Z,100612.12
2018-11-06T10:34:16.070Z,100608.61
2018-11-06T10:36:44.256Z,100610.99
2018-11-06T10:39:13.723Z,100613.48
2018-11-06T10:41:41.870Z,100599.19
2018-11-06T10:44:10.069Z,100599.28
2018-11-06T10:46:38.670Z,100603.74
2018-11-06T10:49:07.665Z,100600.02
2018-11-06T10:51:35.869Z,100592.93
2018-11-06T10:54:03.993Z,100609.50
2018-11-06T10:56:32.159Z,100609.47
2018-11-06T10:59:00.324Z,100599.95
2018-11-06T11:01:33.955Z,100609.23
2018-11-06T11:04:07.452Z,100608.95
2018-11-06T11:06:35.570Z,100610.25
2018-11-06T11:09:04.342Z,100618.80
2018-11-06T11:11:32.472Z,100609.54
2018-11-06T11:14:00.629Z,100603.72
2018-11-06T11:16:28.757Z,100605.71
2018-11-06T11:18:56.933Z,100601.60
2018-11-06T11:21:25.081Z,100602.16
2018-11-06T11:23:53.201Z,100597.87
2018-11-06T11:26:21.343Z,100596.19
2018-11-06T11:28:49.470Z,100599.36
2018-11-06T11:31:17.656Z,100602.56
2018-11-06T11:33:45.802Z,100596.73
2018-11-06T11:36:13.902Z,100593.17
2018-11-06T11:38:42.031Z,100595.70
2018-11-06T11:41:10.219Z,100590.49
2018-11-06T11:43:39.600Z,100586.53
2018-11-06T11:46:07.765Z,100587.80
2018-11-06T11:48:35.914Z,100584.00
2018-11-06T11:51:04.074Z,100586.98
2018-11-06T11:53:32.190Z,100597.19
2018-11-06T11:56:00.352Z,100597.43
2018-11-06T11:58:28.501Z,100595.65
2018-11-06T12:00:56.667Z,100598.40
2018-11-06T12:03:24.845Z,100603.17
2018-11-06T12:05:53.042Z,100606.11
2018-11-06T12:08:21.184Z,100587.32
2018-11-06T12:10:49.349Z,100586.16
2018-11-06T12:13:17.484Z,100578.23
2018-11-06T12:15:45.601Z,100578.09
2018-11-06T12:18:13.793Z,100576.45
2018-11-06T12:20:41.862Z,100574.73
2018-11-06T12:23:10.009Z,100568.62
2018-11-06T12:25:38.295Z,100565.34
2018-11-06T12:28:06.365Z,100561.36
2018-11-06T12:30:34.510Z,100558.87
2018-11-06T12:33:02.641Z,100565.49
2018-11-06T12:35:30.966Z,100558.34
2018-11-06T12:37:59.123Z,100554.06
2018-11-06T12:40:27.342Z,100563.20
2018-11-06T12:42:55.505Z,100565.25
2018-11-06T12:45:23.605Z,100570.77
2018-11-06T12:47:51.760Z,100567.93
2018-11-06T12:50:19.961Z,100568.98
2018-11-06T12:52:48.031Z,100568.67
2018-11-06T12:55:16.687Z,100574.62
2018-11-06T12:57:45.056Z,100569.09
2018-11-06T13:00:15.901Z,100569.56
2018-11-06T13:02:44.064Z,100568.10
2018-11-06T13:05:12.265Z,100567.37
2018-11-06T13:07:41.462Z,100573.92
2018-11-06T13:10:10.456Z,100575.52
2018-11-06T13:12:39.055Z,100574.03
2018-11-06T13:15:07.738Z,100576.88
2018-11-06T13:17:36.466Z,100566.89
2018-11-06T13:20:05.972Z,100571.09
2018-11-06T13:22:34.118Z,100563.63
2018-11-06T13:25:02.249Z,100561.31
2018-11-06T13:27:30.405Z,100560.78
2018-11-06T13:29:58.531Z,100559.70
2018-11-06T13:32:26.793Z,100556.69
2018-11-06T13:34:54.862Z,100551.17
2018-11-06T13:37:23.005Z,100551.95
2018-11-06T13:39:51.150Z,100548.00
2018-11-06T13:42:19.311Z,100546.81
2018-11-06T13:44:47.715Z,100548.28
2018-11-06T13:47:15.596Z,100545.91
2018-11-06T13:49:43.706Z,100551.42
2018-11-06T13:52:11.902Z,100553.22
2018-11-06T13:54:40.010Z,100552.80
2018-11-06T13:57:08.430Z,100558.53
2018-11-06T13:59:36.577Z,100556.16
2018-11-06T14:02:05.031Z,100555.86
2018-11-06T14:04:33.188Z,100557.58
2018-11-06T14:07:01.374Z,100560.88
2018-11-06T14:09:29.518Z,100564.59
2018-11-06T14:11:57.654Z,100574.62
2018-11-06T14:14:25.813Z,100575.03
2018-11-06T14:16:53.962Z,100578.65
2018-11-06T14:19:22.078Z,100575.08
2018-11-06T14:21:50.215Z,100580.23
2018-11-06T14:24:18.367Z,100572.34
2018-11-06T14:26:46.534Z,100575.66
2018-11-06T14:29:14.685Z,100568.43
2018-11-06T14:31:42.817Z,100566.86
2018-11-06T14:34:10.970Z,100560.94
2018-11-06T14:36:39.138Z,100566.88
2018-11-06T14:39:08.023Z,100555.78
2018-11-06T14:41:36.182Z,100557.20
2018-11-06T14:44:04.330Z,100560.58
2018-11-06T14:46:32.457Z,100553.23
2018-11-06T14:49:00.666Z,100552.59
2018-11-06T14:51:28.755Z,100544.92
2018-11-06T14:53:56.912Z,100549.70
2018-11-06T14:56:25.037Z,100551.79
2018-11-06T14:58:53.189Z,100549.59
2018-11-06T15:01:21.382Z,100553.53
2018-11-06T15:03:49.592Z,100557.20
2018-11-06T15:06:17.786Z,100556.85
2018-11-06T15:08:45.918Z,100563.20
2018-11-06T15:11:14.070Z,100564.78
2018-11-06T15:13:42.665Z,100569.78
2018-11-06T15:16:10.794Z,100569.41
2018-11-06T15:18:38.955Z,100569.03
2018-11-06T15:21:07.066Z,100572.64
2018-11-06T15:23:35.189Z,100574.06
2018-11-06T15:26:03.324Z,100564.05
2018-11-06T15:28:31.454Z,100569.67
2018-11-06T15:30:59.578Z,100572.86
2018-11-06T15:33:27.742Z,100577.41
2018-11-06T15:35:55.880Z,100572.43
2018-11-06T15:38:23.997Z,100578.88
2018-11-06T15:40:52.209Z,100582.44
2018-11-06T15:43:20.297Z,100590.95
2018-11-06T15:45:48.434Z,100588.89
2018-11-06T15:48:16.591Z,100590.56
2018-11-06T15:50:44.854Z,100592.59
2018-11-06T15:53:13.032Z,100592.22
2018-11-06T15:55:41.170Z,100597.09
2018-11-06T15:58:09.330Z,100594.06
2018-11-06T16:00:37.539Z,100596.73
2018-11-06T16:03:05.618Z,100589.65
2018-11-06T16:05:33.821Z,100589.27
2018-11-06T16:08:01.950Z,100589.03
2018-11-06T16:10:30.124Z,100587.53
2018-11-06T16:12:58.263Z,100588.27
2018-11-06T16:15:26.465Z,100594.34
2018-11-06T16:17:54.605Z,100592.78
2018-11-06T16:20:22.796Z,100600.05
2018-11-06T16:22:51.001Z,100588.71
2018-11-06T16:25:19.805Z,100597.96
2018-11-06T16:27:48.189Z,100594.90
2018-11-06T16:30:18.618Z,100601.44
2018-11-06T16:32:46.807Z,100597.13
2018-11-06T16:35:16.205Z,100603.21
2018-11-06T16:37:44.919Z,100602.66
2018-11-06T16:40:13.679Z,100608.06
2018-11-06T16:42:42.677Z,100611.55
2018-11-06T16:45:13.629Z,100607.04
2018-11-06T16:47:42.326Z,100617.62
2018-11-06T16:50:11.725Z,100621.72
2018-11-06T16:52:39.881Z,100623.17
2018-11-06T16:55:08.620Z,100632.80
2018-11-06T16:57:36.867Z,100635.27
2018-11-06T17:00:06.134Z,100634.19
2018-11-06T17:02:34.134Z,100632.42
2018-11-06T17:05:02.262Z,100632.09
2018-11-06T17:07:30.437Z,100632.03
2018-11-06T17:09:58.582Z,100629.64
2018-11-06T17:12:26.797Z,100633.12
2018-11-06T17:14:54.934Z,100632.01
2018-11-06T17:17:23.176Z,100630.88
2018-11-06T17:19:51.261Z,100635.39
2018-11-06T17:22:19.389Z,100630.30
2018-11-06T17:24:47.536Z,100632.12
2018-11-06T17:27:15.643Z,100637.62
2018-11-06T17:29:43.921Z,100642.07
2018-11-06T17:32:12.080Z,100642.23
2018-11-06T17:34:40.290Z,100643.85
2018-11-06T17:37:08.401Z,100638.67
2018-11-06T17:39:36.648Z,100633.22
2018-11-06T17:42:04.734Z,100636.53
2018-11-06T17:44:32.860Z,100634.84
2018-11-06T17:47:01.026Z,100639.60
2018-11-06T17:49:29.132Z,100636.22
2018-11-06T17:51:57.327Z,100634.16
2018-11-06T17:54:25.421Z,100634.16
2018-11-06T17:56:53.547Z,100633.31
2018-11-06T17:59:21.722Z,100628.55
2018-11-06T18:01:49.952Z,100629.09
2018-11-06T18:04:18.273Z,100632.89
2018-11-06T18:06:46.289Z,100632.50
2018-11-06T18:09:14.425Z,100628.59
2018-11-06T18:11:43.021Z,100630.73
2018-11-06T18:14:11.182Z,100626.13
2018-11-06T18:16:39.325Z,100629.36
2018-11-06T18:19:07.491Z,100623.94
2018-11-06T18:21:35.709Z,100621.94
2018-11-06T18:24:03.957Z,100619.70
2018-11-06T18:26:32.122Z,100621.64
2018-11-06T18:29:00.244Z,100618.03
2018-11-06T18:31:28.395Z,100616.67
2018-11-06T18:33:57.213Z,100620.03
2018-11-06T18:36:25.338Z,100624.94
2018-11-06T18:38:53.489Z,100621.09
2018-11-06T18:41:22.446Z,100624.94
2018-11-06T18:43:50.602Z,100621.48
2018-11-06T18:46:18.737Z,100617.88
2018-11-06T18:48:46.967Z,100620.34
2018-11-06T18:51:15.082Z,100618.27
2018-11-06T18:53:43.206Z,100616.36
2018-11-06T18:56:11.363Z,100621.72
2018-11-06T18:58:39.532Z,100622.18
2018-11-06T19:01:07.701Z,100625.25
2018-11-06T19:03:35.917Z,100626.63
2018-11-06T19:06:04.157Z,100622.18
2018-11-06T19:08:32.437Z,100623.41
2018-11-06T19:11:00.596Z,100623.48
2018-11-06T19:13:28.738Z,100626.70
2018-11-06T19:15:56.889Z,100620.88
2018-11-06T19:18:25.027Z,100623.19
2018-11-06T19:20:53.126Z,100616.95
2018-11-06T19:23:21.262Z,100617.32
2018-11-06T19:25:49.421Z,100612.70
2018-11-06T19:28:17.537Z,100620.77
2018-11-06T19:30:45.685Z,100614.72
2018-11-06T19:33:13.903Z,100619.61
2018-11-06T19:35:42.094Z,100616.34
2018-11-06T19:38:10.265Z,100611.19
2018-11-06T19:40:38.525Z,100611.80
2018-11-06T19:43:06.588Z,100608.20
2018-11-06T19:45:34.717Z,100608.41
2018-11-06T19:48:02.933Z,100611.19
2018-11-06T19:50:31.067Z,100612.80
2018-11-06T19:52:59.242Z,100611.21
2018-11-06T19:55:27.405Z,100601.48
2018-11-06T19:57:56.011Z,100608.44
2018-11-06T20:00:24.271Z,100604.07
2018-11-06T20:02:53.479Z,100599.46
2018-11-06T20:05:21.855Z,100595.03
2018-11-06T20:07:51.030Z,100599.75
2018-11-06T20:10:20.756Z,100596.27
2018-11-06T20:12:50.141Z,100593.00
2018-11-06T20:15:18.505Z,100594.60
2018-11-06T20:17:47.119Z,100592.72
2018-11-06T20:20:16.761Z,100592.92
2018-11-06T20:22:45.498Z,100600.20
2018-11-06T20:25:13.877Z,100604.50
2018-11-06T20:27:42.364Z,100592.91
2018-11-06T20:30:13.729Z,100597.06
2018-11-06T20:32:42.209Z,100597.06
2018-11-06T20:35:11.441Z,100600.50
2018-11-06T20:37:39.634Z,100594.02
2018-11-06T20:40:11.055Z,100590.24
2018-11-06T20:42:39.603Z,100592.56
2018-11-06T20:45:08.938Z,100588.00
2018-11-06T20:47:37.173Z,100587.54
2018-11-06T20:50:10.378Z,100579.62
2018-11-06T20:52:38.586Z,100583.66
2018-11-06T20:55:07.434Z,100583.06
2018-11-06T20:57:35.993Z,100585.22
2018-11-06T21:00:04.479Z,100585.98
2018-11-06T21:02:32.534Z,100584.69
2018-11-06T21:05:00.749Z,100585.85
2018-11-06T21:07:29.130Z,100591.38
2018-11-06T21:09:57.508Z,100587.92
2018-11-06T21:12:25.868Z,100583.00
2018-11-06T21:14:54.095Z,100579.09
2018-11-06T21:17:22.315Z,100580.01
2018-11-06T21:19:50.706Z,100574.20
2018-11-06T21:22:18.802Z,100572.13
2018-11-06T21:24:47.028Z,100582.41
2018-11-06T21:27:15.274Z,100576.98
2018-11-06T21:29:43.381Z,100578.11
2018-11-06T21:32:11.589Z,100568.92
2018-11-06T21:34:39.721Z,100565.02
2018-11-06T21:37:07.845Z,100564.45
2018-11-06T21:39:35.989Z,100562.80
2018-11-06T21:42:04.141Z,100564.80
2018-11-06T21:44:33.048Z,100560.27
2018-11-06T21:47:01.229Z,100558.75
2018-11-06T21:49:29.353Z,100556.92
2018-11-06T21:51:57.500Z,100562.25
2018-11-06T21:54:25.680Z,100561.02
2018-11-06T21:56:53.805Z,100557.94
2018-11-06T21:59:21.986Z,100559.52
2018-11-06T22:01:50.193Z,100562.69
2018-11-06T22:04:18.370Z,100562.16
2018-11-06T22:06:46.547Z,100557.34
2018-11-06T22:09:14.705Z,100558.64
2018-11-06T22:11:42.832Z,100550.16
2018-11-06T22:14:10.984Z,100553.29
2018-11-06T22:16:39.113Z,100550.16
2018-11-06T22:19:07.281Z,100555.52
2018-11-06T22:21:35.493Z,100554.67
2018-11-06T22:24:03.609Z,100554.98
2018-11-06T22:26:31.758Z,100548.86
2018-11-06T22:28:59.914Z,100547.16
2018-11-06T22:31:28.126Z,100548.08
2018-11-06T22:33:56.234Z,100547.69
2018-11-06T22:36:24.370Z,100545.37
2018-11-06T22:38:52.498Z,100546.14
2018-11-06T22:41:20.744Z,100543.92
2018-11-06T22:43:49.342Z,100534.85
2018-11-06T22:46:17.513Z,100536.93
2018-11-06T22:48:45.664Z,100542.77
2018-11-06T22:51:13.834Z,100539.98
2018-11-06T22:53:42.201Z,100537.06
2018-11-06T22:56:10.345Z,100543.50
2018-11-06T22:58:38.551Z,100530.14
2018-11-06T23:01:12.151Z,100530.30
2018-11-06T23:03:40.873Z,100534.68
2018-11-06T23:06:09.258Z,100533.97
2018-11-06T23:08:37.253Z,100525.30
2018-11-06T23:11:05.612Z,100529.07
2018-11-06T23:13:33.818Z,100529.98
2018-11-06T23:16:01.949Z,100532.13
2018-11-06T23:18:30.077Z,100523.52
2018-11-06T23:20:58.257Z,100522.43
2018-11-06T23:23:26.385Z,100525.48
2018-11-06T23:25:54.542Z,100515.19
2018-11-06T23:28:22.718Z,100524.47
2018-11-06T23:30:50.872Z,100519.30
2018-11-06T23:33:19.006Z,100529.74
2018-11-06T23:35:47.162Z,100526.30
2018-11-06T23:38:15.330Z,100523.98
2018-11-06T23:40:43.502Z,100523.62
2018-11-06T23:43:11.649Z,100518.28
2018-11-06T23:45:39.788Z,100523.27
2018-11-06T23:48:07.928Z,100525.41
2018-11-06T23:50:36.077Z,100514.00
2018-11-06T23:53:04.581Z,100514.38
2018-11-06T23:55:32.685Z,100515.73
2018-11-06T23:58:01.620Z,100513.84
